^^
Station Historical Data
 
Daily Summary for July 24, 2017 Units:  Metric    English   Both
« Previous Day
Next Day »
Daily Weekly Monthly Yearly Custom
  Current: High: Low: Average:
Temperature: 15.1 °C 15.1 °C 13.1 °C 13.8 °C
Dew Point: 12.4 °C 13.6 °C 11.9 °C 12.5 °C
Humidity: 84 % 95 % 84 % 92 %
Wind Speed: 9.3 km/h 37 km/h 0 km/h 17.9 km/h
Wind Gust: 9.3 km/h 37 km/h - -
Wind:NNW - - West
Pressure: 1016.1 hPa 1016.1 hPa 1010.7 hPa -
Precipitation: 0.25 mm      
Historical Graphs
 
 
Tabular Data for July 24, 2017
Time Temperature Dew Point Pressure Wind Wind Speed Wind Gust Humidity Rainfall Rate (Hourly) solar Conditions
00:01 14.2 °C 13.4 °C 1010.7 hPa East 29.6 km/h 29.6 km/h 95 % 0.25 mm 0.0 W/m2 SCT
00:06 14.2 °C 13.4 °C 1010.7 hPa NNE 18.5 km/h 18.5 km/h 95 % 0.25 mm 0.0 W/m2 SCT
00:11 14.2 °C 13.4 °C 1010.7 hPa NW 24.1 km/h 24.1 km/h 95 % 0.25 mm 0.0 W/m2 SCT
00:16 14.2 °C 13.4 °C 1010.7 hPa NNW 25.9 km/h 25.9 km/h 95 % 0.25 mm 0.0 W/m2 SCT
00:21 14.2 °C 13.4 °C 1010.7 hPa NNW 20.4 km/h 20.4 km/h 95 % 0.25 mm 0.0 W/m2 SCT
00:26 14.3 °C 13.5 °C 1010.7 hPa NE 18.5 km/h 18.5 km/h 95 % 0.25 mm 0.0 W/m2 SCT
00:31 14.3 °C 13.5 °C 1010.7 hPa ENE 16.7 km/h 16.7 km/h 95 % 0.25 mm 0.0 W/m2 SCT
00:36 14.3 °C 13.6 °C 1010.7 hPa NNW 22.2 km/h 22.2 km/h 95 % 0.25 mm 0.0 W/m2 SCT
00:41 14.4 °C 13.6 °C 1011.1 hPa NNW 37 km/h 37 km/h 95 % 0 mm 0.0 W/m2 SCT
00:46 14.3 °C 13.6 °C 1011.1 hPa NE 22.2 km/h 22.2 km/h 95 % 0 mm 0.0 W/m2 SCT
00:51 14.4 °C 13.6 °C 1010.7 hPa NNE 18.5 km/h 18.5 km/h 95 % 0 mm 0.0 W/m2 SCT
00:56 14.4 °C 13.6 °C 1010.7 hPa NNE 16.7 km/h 16.7 km/h 95 % 0 mm 0.0 W/m2 SCT
01:01 14.4 °C 13.6 °C 1011.1 hPa NNW 18.5 km/h 18.5 km/h 95 % 0 mm 0.0 W/m2 SCT
01:06 14.4 °C 13.6 °C 1011.1 hPa NNW 18.5 km/h 18.5 km/h 95 % 0 mm 0.0 W/m2 SCT
01:11 14.3 °C 13.6 °C 1011.1 hPa North 18.5 km/h 18.5 km/h 95 % 0 mm 0.0 W/m2 SCT
01:16 14.3 °C 13.6 °C 1011.1 hPa NW 22.2 km/h 22.2 km/h 95 % 0 mm 0.0 W/m2 SCT
01:21 14.4 °C 13.6 °C 1011.1 hPa North 20.4 km/h 20.4 km/h 95 % 0 mm 0.0 W/m2 SCT
01:26 14.3 °C 13.6 °C 1011.1 hPa NW 25.9 km/h 25.9 km/h 95 % 0 mm 0.0 W/m2 SCT
01:27 14.3 °C 13.6 °C 1011.1 hPa NNW 29.6 km/h 29.6 km/h 95 % 0 mm 0.0 W/m2 SCT
01:32 14.3 °C 13.5 °C 1011.1 hPa NNW 18.5 km/h 18.5 km/h 95 % 0 mm 0.0 W/m2 SCT
01:37 14.3 °C 13.5 °C 1011.1 hPa NW 25.9 km/h 25.9 km/h 95 % 0 mm 0.0 W/m2 SCT
01:42 14.2 °C 13.4 °C 1011.1 hPa North 24.1 km/h 24.1 km/h 95 % 0 mm 0.0 W/m2 SCT
01:47 14.2 °C 13.4 °C 1011.1 hPa North 27.8 km/h 27.8 km/h 95 % 0 mm 0.0 W/m2 SCT
01:52 14.2 °C 13.4 °C 1011.4 hPa North 20.4 km/h 20.4 km/h 95 % 0 mm 0.0 W/m2 SCT
01:57 14.2 °C 13.4 °C 1011.4 hPa North 20.4 km/h 20.4 km/h 95 % 0 mm 0.0 W/m2 SCT
02:02 14.1 °C 13.3 °C 1011.4 hPa NNW 20.4 km/h 20.4 km/h 95 % 0 mm 0.0 W/m2 SCT
02:03 14.1 °C 13.3 °C 1011.4 hPa NW 22.2 km/h 22.2 km/h 95 % 0 mm 0.0 W/m2 SCT
02:08 14.1 °C 13.3 °C 1011.4 hPa NNW 24.1 km/h 24.1 km/h 95 % 0 mm 0.0 W/m2 SCT
02:13 14.1 °C 13.3 °C 1011.4 hPa North 18.5 km/h 18.5 km/h 95 % 0 mm 0.0 W/m2 SCT
02:18 14 °C 13.2 °C 1011.4 hPa NNE 19.3 km/h 19.3 km/h 95 % 0 mm 0.0 W/m2 SCT
02:23 14 °C 13.2 °C 1011.7 hPa NNW 13 km/h 13 km/h 95 % 0 mm 0.0 W/m2 SCT
02:28 13.9 °C 13.2 °C 1011.7 hPa NNW 16.7 km/h 16.7 km/h 95 % 0 mm 0.0 W/m2 SCT
02:29 13.9 °C 13.2 °C 1011.7 hPa North 22.5 km/h 22.5 km/h 95 % 0 mm 0.0 W/m2 SCT
02:34 13.9 °C 13.1 °C 1011.7 hPa NW 22.2 km/h 22.2 km/h 95 % 0 mm 0.0 W/m2 SCT
02:39 13.8 °C 13.1 °C 1011.4 hPa NNE 12.9 km/h 12.9 km/h 95 % 0 mm 0.0 W/m2 SCT
02:44 13.8 °C 13.1 °C 1011.7 hPa NNW 25.9 km/h 25.9 km/h 95 % 0 mm 0.0 W/m2 SCT
02:49 13.8 °C 13 °C 1011.7 hPa NNW 22.5 km/h 22.5 km/h 95 % 0 mm 0.0 W/m2 SCT
02:54 13.8 °C 12.8 °C 1011.7 hPa NNW 24.1 km/h 24.1 km/h 94 % 0 mm 0.0 W/m2 SCT
02:59 13.8 °C 12.8 °C 1011.7 hPa WNW 24.1 km/h 24.1 km/h 94 % 0 mm 0.0 W/m2 SCT
03:04 13.8 °C 12.8 °C 1011.7 hPa NNW 24.1 km/h 24.1 km/h 94 % 0 mm 0.0 W/m2 SCT
03:09 13.7 °C 12.8 °C 1011.7 hPa North 29.6 km/h 29.6 km/h 94 % 0 mm 0.0 W/m2 SCT
03:14 13.7 °C 12.7 °C 1011.7 hPa NW 16.7 km/h 16.7 km/h 94 % 0 mm 0.0 W/m2 SCT
03:19 13.7 °C 12.7 °C 1011.7 hPa NNW 14.5 km/h 14.5 km/h 94 % 0 mm 0.0 W/m2 SCT
03:24 13.6 °C 12.7 °C 1011.7 hPa NNW 27.8 km/h 27.8 km/h 94 % 0 mm 0.0 W/m2 SCT
03:29 13.6 °C 12.6 °C 1011.7 hPa North 20.4 km/h 20.4 km/h 94 % 0 mm 0.0 W/m2 SCT
03:34 13.5 °C 12.6 °C 1011.7 hPa NNW 19.3 km/h 19.3 km/h 94 % 0 mm 0.0 W/m2 SCT
03:39 13.4 °C 12.5 °C 1011.7 hPa NW 16.7 km/h 16.7 km/h 94 % 0 mm 0.0 W/m2 SCT
03:44 13.4 °C 12.5 °C 1011.7 hPa NW 13 km/h 13 km/h 94 % 0 mm 0.0 W/m2 SCT
03:49 13.4 °C 12.4 °C 1011.7 hPa NNW 20.4 km/h 20.4 km/h 94 % 0 mm 0.0 W/m2 SCT
03:54 13.3 °C 12.4 °C 1011.7 hPa NNW 16.7 km/h 16.7 km/h 94 % 0 mm 0.0 W/m2 SCT
03:59 13.3 °C 12.4 °C 1011.7 hPa NNW 18.5 km/h 18.5 km/h 94 % 0 mm 0.0 W/m2 SCT
04:04 13.3 °C 12.4 °C 1011.7 hPa North 22.2 km/h 22.2 km/h 94 % 0 mm 0.0 W/m2 SCT
04:05 13.3 °C 12.4 °C 1011.7 hPa NW 22.2 km/h 22.2 km/h 94 % 0 mm 0.0 W/m2 SCT
04:10 13.3 °C 12.3 °C 1012.1 hPa NNW 12.9 km/h 12.9 km/h 94 % 0 mm 0.0 W/m2 SCT
04:15 13.3 °C 12.4 °C 1012.1 hPa NNW 18.5 km/h 18.5 km/h 94 % 0 mm 0.0 W/m2 SCT
04:20 13.3 °C 12.4 °C 1011.7 hPa NNE 16.7 km/h 16.7 km/h 94 % 0 mm 0.0 W/m2 SCT
04:25 13.3 °C 12.4 °C 1012.1 hPa NNW 22.2 km/h 22.2 km/h 94 % 0 mm 0.0 W/m2 SCT
04:30 13.3 °C 12.4 °C 1011.7 hPa NNW 8 km/h 22.5 km/h 94 % 0 mm 0.0 W/m2 SCT
04:35 13.3 °C 12.4 °C 1011.7 hPa NW 22.2 km/h 22.2 km/h 94 % 0 mm 0.0 W/m2 SCT
04:40 13.3 °C 12.4 °C 1011.7 hPa NW 18.5 km/h 18.5 km/h 94 % 0 mm 0.0 W/m2 SCT
04:45 13.3 °C 12.4 °C 1011.7 hPa North 24.1 km/h 24.1 km/h 94 % 0 mm 0.0 W/m2 SCT
04:50 13.3 °C 12.4 °C 1012.1 hPa NW 13 km/h 13 km/h 94 % 0 mm 0.0 W/m2 SCT
04:55 13.3 °C 12.4 °C 1012.1 hPa NNW 29.6 km/h 29.6 km/h 94 % 0 mm 0.0 W/m2 SCT
05:00 13.3 °C 12.4 °C 1011.7 hPa NNW 25.9 km/h 25.9 km/h 94 % 0 mm 0.0 W/m2 SCT
05:05 13.3 °C 12.4 °C 1011.7 hPa NW 35.2 km/h 35.2 km/h 94 % 0 mm 0.0 W/m2 SCT
05:10 13.3 °C 12.4 °C 1011.7 hPa North 24.1 km/h 24.1 km/h 94 % 0 mm 0.0 W/m2 SCT
05:15 13.3 °C 12.3 °C 1012.1 hPa NNW 24.1 km/h 24.1 km/h 94 % 0 mm 0.0 W/m2 SCT
05:20 13.3 °C 12.3 °C 1012.1 hPa NNW 25.9 km/h 25.9 km/h 94 % 0 mm 5.0 W/m2 SCT
05:25 13.3 °C 12.3 °C 1012.1 hPa NW 14.8 km/h 14.8 km/h 94 % 0 mm 5.0 W/m2 SCT
05:30 13.3 °C 12.3 °C 1012.1 hPa NNE 18.5 km/h 18.5 km/h 94 % 0 mm 7.0 W/m2 SCT
05:35 13.3 °C 12.3 °C 1012.1 hPa North 14.8 km/h 14.8 km/h 94 % 0 mm 7.0 W/m2 SCT
05:40 13.3 °C 12.3 °C 1012.1 hPa NNW 13 km/h 13 km/h 94 % 0 mm 7.0 W/m2 SCT
05:45 13.3 °C 12.3 °C 1012.4 hPa NE 22.2 km/h 22.2 km/h 94 % 0 mm 12.0 W/m2 SCT
05:50 13.2 °C 12.3 °C 1012.4 hPa North 18.5 km/h 18.5 km/h 94 % 0 mm 11.0 W/m2 SCT
05:55 13.2 °C 12.3 °C 1012.4 hPa NE 24.1 km/h 24.1 km/h 94 % 0 mm 11.0 W/m2 SCT
06:00 13.2 °C 12.2 °C 1012.4 hPa NW 16.7 km/h 16.7 km/h 94 % 0 mm 18.0 W/m2 SCT
06:05 13.2 °C 12.2 °C 1012.1 hPa NW 20.4 km/h 20.4 km/h 94 % 0 mm 14.0 W/m2 SCT
06:10 13.2 °C 12.2 °C 1012.1 hPa NW 20.4 km/h 20.4 km/h 94 % 0 mm 18.0 W/m2 SCT
06:15 13.2 °C 12.2 °C 1012.1 hPa NNW 19.3 km/h 19.3 km/h 94 % 0 mm 21.0 W/m2 SCT
06:20 13.2 °C 12.2 °C 1012.4 hPa North 20.4 km/h 20.4 km/h 94 % 0 mm 28.0 W/m2 SCT
06:25 13.2 °C 12.2 °C 1012.4 hPa North 18.5 km/h 18.5 km/h 94 % 0 mm 25.0 W/m2 SCT
06:30 13.2 °C 12.2 °C 1012.4 hPa NNW 25.9 km/h 25.9 km/h 94 % 0 mm 30.0 W/m2 SCT
06:35 13.1 °C 12.2 °C 1012.4 hPa North 14.8 km/h 14.8 km/h 94 % 0 mm 33.0 W/m2 SCT
06:40 13.1 °C 12 °C 1012.4 hPa NNW 18.5 km/h 18.5 km/h 93 % 0 mm 25.0 W/m2 SCT
06:45 13.1 °C 12 °C 1012.4 hPa NNW 16.7 km/h 16.7 km/h 93 % 0 mm 28.0 W/m2 SCT
06:50 13.1 °C 12 °C 1012.8 hPa North 11.3 km/h 11.6 km/h 93 % 0 mm 33.0 W/m2 SCT
06:55 13.1 °C 12 °C 1012.8 hPa NNW 14.8 km/h 14.8 km/h 93 % 0 mm 32.0 W/m2 SCT
07:00 13.2 °C 12.1 °C 1012.8 hPa NNW 14.8 km/h 14.8 km/h 93 % 0 mm 25.0 W/m2 SCT
07:05 13.1 °C 12 °C 1012.8 hPa NNW 22.2 km/h 22.2 km/h 93 % 0 mm 21.0 W/m2 SCT
07:10 13.1 °C 12 °C 1012.8 hPa NW 13 km/h 13 km/h 93 % 0 mm 21.0 W/m2 SCT
07:15 13.1 °C 11.9 °C 1013.1 hPa NNW 24.1 km/h 24.1 km/h 93 % 0 mm 18.0 W/m2 SCT
07:20 13.1 °C 11.9 °C 1013.1 hPa NNW 29.6 km/h 29.6 km/h 93 % 0 mm 23.0 W/m2 SCT
07:25 13.1 °C 11.9 °C 1013.1 hPa NNW 16.7 km/h 16.7 km/h 93 % 0 mm 32.0 W/m2 SCT
07:30 13.1 °C 11.9 °C 1013.1 hPa NW 9.7 km/h 9.8 km/h 93 % 0 mm 28.0 W/m2 SCT
07:35 13.1 °C 11.9 °C 1013.1 hPa WNW 16.7 km/h 16.7 km/h 93 % 0 mm 32.0 W/m2 SCT
07:40 13.1 °C 11.9 °C 1013.1 hPa NW 16.7 km/h 16.7 km/h 93 % 0 mm 39.0 W/m2 SCT
07:45 13.1 °C 12 °C 1013.1 hPa NNW 13 km/h 13 km/h 93 % 0 mm 42.0 W/m2 SCT
07:50 13.2 °C 12.1 °C 1013.4 hPa NNW 14.8 km/h 14.8 km/h 93 % 0 mm 40.0 W/m2 SCT
07:55 13.2 °C 12.1 °C 1013.4 hPa NW 14.8 km/h 14.8 km/h 93 % 0 mm 46.0 W/m2 SCT
08:00 13.2 °C 12.1 °C 1013.4 hPa NW 16.7 km/h 16.7 km/h 93 % 0 mm 53.0 W/m2 SCT
08:05 13.2 °C 12.1 °C 1013.4 hPa North 9.3 km/h 9.3 km/h 93 % 0 mm 58.0 W/m2 SCT
08:10 13.2 °C 12.1 °C 1013.4 hPa NNW 11.3 km/h 11.3 km/h 93 % 0 mm 62.0 W/m2 SCT
08:15 13.2 °C 12.1 °C 1013.4 hPa NNW 13 km/h 13 km/h 93 % 0 mm 62.0 W/m2 SCT
08:20 13.2 °C 12.1 °C 1013.4 hPa NNW 11.1 km/h 11.1 km/h 93 % 0 mm 42.0 W/m2 SCT
08:25 13.2 °C 12.1 °C 1013.8 hPa NW 5.6 km/h 5.6 km/h 93 % 0 mm 42.0 W/m2 SCT
08:30 13.2 °C 12.1 °C 1013.8 hPa Calm     93 % 0 mm 42.0 W/m2 SCT
08:35 13.3 °C 12 °C 1013.8 hPa WNW 11.1 km/h 11.1 km/h 92 % 0 mm 35.0 W/m2 SCT
08:40 13.2 °C 11.9 °C 1013.8 hPa NNW 9.3 km/h 9.3 km/h 92 % 0 mm 39.0 W/m2 SCT
08:45 13.3 °C 12 °C 1013.8 hPa North 6.4 km/h 6.4 km/h 92 % 0 mm 40.0 W/m2 SCT
08:50 13.2 °C 11.9 °C 1013.8 hPa NNW 11.3 km/h 11.3 km/h 92 % 0 mm 77.0 W/m2 SCT
08:55 13.2 °C 12.1 °C 1013.8 hPa North 14.5 km/h 14.5 km/h 93 % 0 mm 123.0 W/m2 SCT
09:00 13.2 °C 12.1 °C 1013.8 hPa NNW 18.5 km/h 18.5 km/h 93 % 0 mm 139.0 W/m2 SCT
09:05 13.3 °C 12.2 °C 1013.8 hPa NW 16.7 km/h 16.7 km/h 93 % 0 mm 128.0 W/m2 SCT
09:10 13.3 °C 12.2 °C 1013.8 hPa NW 24.1 km/h 24.1 km/h 93 % 0 mm 160.0 W/m2 SCT
09:15 13.3 °C 12.2 °C 1014.1 hPa NNW 13 km/h 13 km/h 93 % 0 mm 169.0 W/m2 SCT
09:20 13.4 °C 12.3 °C 1013.8 hPa NW 16.7 km/h 16.7 km/h 93 % 0 mm 230.0 W/m2 SCT
09:25 13.5 °C 12.4 °C 1014.1 hPa NNW 16.1 km/h 16.1 km/h 93 % 0 mm 188.0 W/m2 SCT
09:30 13.5 °C 12.4 °C 1014.1 hPa NNW 13 km/h 13 km/h 93 % 0 mm 134.0 W/m2 SCT
09:35 13.6 °C 12.4 °C 1014.1 hPa NW 18.5 km/h 18.5 km/h 93 % 0 mm 123.0 W/m2 SCT
09:40 13.5 °C 12.2 °C 1014.1 hPa NNW 18.5 km/h 18.5 km/h 92 % 0 mm 90.0 W/m2 SCT
09:45 13.4 °C 12.2 °C 1014.1 hPa North 18.5 km/h 18.5 km/h 92 % 0 mm 74.0 W/m2 SCT
09:50 13.3 °C 12.1 °C 1014.1 hPa NNW 18.5 km/h 18.5 km/h 92 % 0 mm 74.0 W/m2 SCT
09:55 13.3 °C 12 °C 1014.1 hPa NNW 11.1 km/h 11.1 km/h 92 % 0 mm 156.0 W/m2 SCT
10:00 13.3 °C 12.1 °C 1014.1 hPa NNW 18.5 km/h 18.5 km/h 92 % 0 mm 202.0 W/m2 SCT
10:05 13.4 °C 12.2 °C 1014.1 hPa NNW 16.7 km/h 16.7 km/h 92 % 0 mm 220.0 W/m2 SCT
10:10 13.5 °C 12.2 °C 1014.1 hPa NNW 18.5 km/h 18.5 km/h 92 % 0 mm 260.0 W/m2 SCT
10:15 13.6 °C 12.3 °C 1014.1 hPa NE 14.8 km/h 14.8 km/h 92 % 0 mm 151.0 W/m2 SCT
10:16 13.6 °C 12.3 °C 1014.1 hPa NNW 14.8 km/h 14.8 km/h 92 % 0 mm 162.0 W/m2 SCT
10:21 13.7 °C 12.4 °C 1014.1 hPa NNW 20.4 km/h 20.4 km/h 92 % 0 mm 148.0 W/m2 SCT
10:26 13.6 °C 12.2 °C 1014.4 hPa NNW 18.5 km/h 18.5 km/h 91 % 0 mm 186.0 W/m2 SCT
10:31 13.6 °C 12.2 °C 1014.4 hPa NNW 18.5 km/h 18.5 km/h 91 % 0 mm 142.0 W/m2 SCT
10:36 13.6 °C 12.1 °C 1014.4 hPa NNW 18.5 km/h 18.5 km/h 91 % 0 mm 148.0 W/m2 SCT
10:37 13.6 °C 12.1 °C 1014.4 hPa NW 13 km/h 13 km/h 91 % 0 mm 167.0 W/m2 SCT
10:42 13.6 °C 12.1 °C 1014.4 hPa NNW 14.8 km/h 14.8 km/h 91 % 0 mm 151.0 W/m2 SCT
10:47 13.6 °C 12.2 °C 1014.4 hPa NW 14.8 km/h 14.8 km/h 91 % 0 mm 214.0 W/m2 SCT
10:52 13.7 °C 12.3 °C 1014.4 hPa NW 9.3 km/h 9.3 km/h 91 % 0 mm 239.0 W/m2 SCT
10:57 13.8 °C 12.3 °C 1014.4 hPa North 14.8 km/h 14.8 km/h 91 % 0 mm 188.0 W/m2 SCT
11:02 13.8 °C 12.4 °C 1014.4 hPa NNW 20.4 km/h 20.4 km/h 91 % 0 mm 241.0 W/m2 SCT
11:07 13.9 °C 12.4 °C 1014.4 hPa NW 19.3 km/h 19.3 km/h 91 % 0 mm 251.0 W/m2 SCT
11:12 13.9 °C 12.5 °C 1014.8 hPa North 24.1 km/h 24.1 km/h 91 % 0 mm 248.0 W/m2 SCT
11:17 14 °C 12.6 °C 1014.4 hPa North 14.5 km/h 14.5 km/h 91 % 0 mm 190.0 W/m2 SCT
11:22 14.1 °C 12.6 °C 1014.8 hPa NNW 11.1 km/h 11.1 km/h 91 % 0 mm 241.0 W/m2 SCT
11:27 14.1 °C 12.7 °C 1014.8 hPa North 12.9 km/h 12.9 km/h 91 % 0 mm 253.0 W/m2 SCT
11:32 14.2 °C 12.6 °C 1014.8 hPa NNE 18.5 km/h 18.5 km/h 90 % 0 mm 257.0 W/m2 SCT
11:37 14.2 °C 12.6 °C 1014.8 hPa NNW 16.7 km/h 16.7 km/h 90 % 0.25 mm 251.0 W/m2 SCT
11:42 14.2 °C 12.6 °C 1014.8 hPa NNW 14.8 km/h 14.8 km/h 90 % 0.25 mm 248.0 W/m2 SCT
11:47 14.3 °C 12.7 °C 1014.8 hPa NNE 18.5 km/h 18.5 km/h 90 % 0.25 mm 272.0 W/m2 SCT
11:52 14.3 °C 12.6 °C 1015.1 hPa NNW 18.5 km/h 18.5 km/h 89 % 0.25 mm 216.0 W/m2 SCT
11:57 14.4 °C 12.6 °C 1015.1 hPa NNW 8 km/h 8 km/h 89 % 0.25 mm 128.0 W/m2 SCT
12:02 14.4 °C 12.7 °C 1015.1 hPa NNW 16.7 km/h 16.7 km/h 89 % 0.25 mm 130.0 W/m2 SCT
12:07 14.3 °C 12.4 °C 1015.1 hPa NNW 22.2 km/h 22.2 km/h 88 % 0.25 mm 156.0 W/m2 SCT
12:12 14.3 °C 12.3 °C 1015.1 hPa NW 22.5 km/h 22.5 km/h 88 % 0.25 mm 144.0 W/m2 SCT
12:17 14.2 °C 12.3 °C 1015.1 hPa NNW 18.5 km/h 18.5 km/h 88 % 0.25 mm 163.0 W/m2 SCT
12:22 14.2 °C 12.2 °C 1015.1 hPa NNW 18.5 km/h 18.5 km/h 88 % 0.25 mm 174.0 W/m2 SCT
12:27 14.2 °C 12.3 °C 1015.1 hPa NNW 18.5 km/h 18.5 km/h 88 % 0.25 mm 139.0 W/m2 SCT
12:32 14.2 °C 12.3 °C 1015.1 hPa NNW 9.3 km/h 9.3 km/h 88 % 0.25 mm 167.0 W/m2 SCT
12:37 14.3 °C 12.4 °C 1015.1 hPa NNE 13 km/h 13 km/h 88 % 0 mm 160.0 W/m2 SCT
12:42 14.4 °C 12.4 °C 1015.1 hPa NNW 13 km/h 13 km/h 88 % 0 mm 211.0 W/m2 SCT
12:47 14.4 °C 12.4 °C 1015.1 hPa NNW 18.5 km/h 18.5 km/h 88 % 0 mm 192.0 W/m2 SCT
12:52 14.4 °C 12.5 °C 1015.1 hPa NW 13 km/h 13 km/h 88 % 0 mm 132.0 W/m2 SCT
12:57 14.5 °C 12.6 °C 1015.1 hPa NNW 24.1 km/h 24.1 km/h 88 % 0 mm 165.0 W/m2 SCT
13:02 14.4 °C 12.5 °C 1015.1 hPa North 19.3 km/h 19.3 km/h 88 % 0 mm 127.0 W/m2 SCT
13:07 14.4 °C 12.3 °C 1015.1 hPa NNW 22.2 km/h 22.2 km/h 87 % 0 mm 127.0 W/m2 SCT
13:12 14.4 °C 12.3 °C 1015.5 hPa NNW 18.5 km/h 18.5 km/h 87 % 0 mm 141.0 W/m2 SCT
13:17 14.4 °C 12.3 °C 1015.5 hPa NNW 11.1 km/h 11.1 km/h 87 % 0 mm 114.0 W/m2 SCT
13:22 14.4 °C 12.3 °C 1015.5 hPa NNE 5.6 km/h 5.6 km/h 87 % 0 mm 100.0 W/m2 SCT
13:27 14.4 °C 12.3 °C 1015.5 hPa NW 20.4 km/h 20.4 km/h 87 % 0 mm 84.0 W/m2 SCT
13:28 14.4 °C 12.3 °C 1015.5 hPa NNW 13 km/h 13 km/h 87 % 0 mm 84.0 W/m2 SCT
13:33 14.4 °C 12.3 °C 1015.5 hPa North 14.8 km/h 14.8 km/h 87 % 0 mm 77.0 W/m2 SCT
13:38 14.4 °C 12.3 °C 1015.5 hPa NNE 14.8 km/h 14.8 km/h 87 % 0 mm 84.0 W/m2 SCT
13:43 14.4 °C 12.3 °C 1015.5 hPa NNW 16.7 km/h 16.7 km/h 87 % 0 mm 88.0 W/m2 SCT
13:48 14.3 °C 12.2 °C 1015.8 hPa NNW 14.8 km/h 14.8 km/h 87 % 0 mm 105.0 W/m2 SCT
13:50 14.3 °C 12.2 °C 1015.8 hPa NNW 16.7 km/h 16.7 km/h 87 % 0 mm 93.0 W/m2 SCT
13:55 14.3 °C 12.4 °C 1015.8 hPa East 27.8 km/h 27.8 km/h 88 % 0 mm 74.0 W/m2 SCT
14:00 14.3 °C 12.2 °C 1015.8 hPa NNW 11.3 km/h 11.3 km/h 87 % 0 mm 86.0 W/m2 SCT
14:05 14.3 °C 12.2 °C 1015.8 hPa NNW 11.1 km/h 11.1 km/h 87 % 0 mm 113.0 W/m2 SCT
14:10 14.3 °C 12.2 °C 1015.8 hPa North 14.8 km/h 14.8 km/h 87 % 0 mm 98.0 W/m2 SCT
14:15 14.2 °C 12.1 °C 1015.8 hPa North 13 km/h 13 km/h 87 % 0 mm 98.0 W/m2 SCT
14:20 14.2 °C 12.1 °C 1016.1 hPa ESE 13 km/h 13 km/h 87 % 0 mm 123.0 W/m2 SCT
14:25 14.2 °C 12.1 °C 1016.1 hPa NNW 18.5 km/h 18.5 km/h 87 % 0 mm 105.0 W/m2 SCT
14:30 14.2 °C 12.1 °C 1016.1 hPa NNW 16.7 km/h 16.7 km/h 87 % 0 mm 113.0 W/m2 SCT
14:35 14.2 °C 12.1 °C 1016.1 hPa ENE 11.1 km/h 11.1 km/h 87 % 0 mm 127.0 W/m2 SCT
14:40 14.2 °C 12.1 °C 1016.1 hPa NNW 9.3 km/h 9.3 km/h 87 % 0 mm 109.0 W/m2 SCT
14:45 14.3 °C 12.2 °C 1016.1 hPa NNW 16.7 km/h 16.7 km/h 87 % 0 mm 128.0 W/m2 SCT
14:50 14.3 °C 12.2 °C 1016.1 hPa NNW 20.4 km/h 20.4 km/h 87 % 0 mm 132.0 W/m2 SCT
14:55 14.3 °C 12.2 °C 1016.1 hPa NNW 12.9 km/h 12.9 km/h 87 % 0 mm 195.0 W/m2 SCT
15:00 14.3 °C 12.2 °C 1016.1 hPa NW 13 km/h 13 km/h 87 % 0 mm 243.0 W/m2 SCT
15:05 14.4 °C 12.3 °C 1016.1 hPa NNE 18.5 km/h 18.5 km/h 87 % 0 mm 251.0 W/m2 SCT
15:10 14.6 °C 12.4 °C 1016.1 hPa ENE 22.5 km/h 22.5 km/h 87 % 0 mm 262.0 W/m2 SCT
15:15 14.7 °C 12.3 °C 1016.1 hPa NNW 14.8 km/h 14.8 km/h 86 % 0 mm 315.0 W/m2 SCT
15:20 14.8 °C 12.4 °C 1016.1 hPa NW 18.5 km/h 18.5 km/h 86 % 0 mm 262.0 W/m2 SCT
15:25 14.9 °C 12.4 °C 1016.1 hPa NW 18.5 km/h 18.5 km/h 85 % 0 mm 221.0 W/m2 SCT
15:30 14.9 °C 12.4 °C 1016.1 hPa NNW 16.7 km/h 16.7 km/h 85 % 0 mm 232.0 W/m2 SCT
15:35 15.1 °C 12.4 °C 1016.1 hPa NNW 9.3 km/h 9.3 km/h 84 % 0 mm 178.0 W/m2 SCT
Billingham Weather Station
Compliments of Weather Underground - 3.25 mb